Time;durP1;ratioP1;P1;durP2;ratioP2;P2;SDS_P1;SDS_P2;PMS_P1;PMS_P2;Temp;Humidity;BMP_temperature;BMP_pressure;BME280_temperature;BME280_humidity;BME280_pressure;Samples;Min_cycle;Max_cycle;Signal;HPM_P1;HPM_P2
2023/01/09 00:01:52;;;;;;;4.18;1.02;;;;;;;;;;5066725;28;20535;-75
2023/01/09 00:04:22;;;;;;;5.85;1.02;;;;;;;;;;5066476;28;20060;-76
2023/01/09 00:06:54;;;;;;;4.93;1.05;;;;;;;;;;5066492;28;20399;-75
2023/01/09 00:09:26;;;;;;;4.60;0.70;;;;;;;;;;5066259;28;20052;-74
2023/01/09 00:11:57;;;;;;;8.63;0.85;;;;;;;;;;5066613;28;20056;-75
2023/01/09 00:14:26;;;;;;;10.45;1.48;;;;;;;;;;5065903;28;20060;-77
2023/01/09 00:16:57;;;;;;;8.10;1.33;;;;;;;;;;5048415;28;20044;-75
2023/01/09 00:19:29;;;;;;;10.10;1.92;;;;;;;;;;5047669;28;20060;-75
2023/01/09 00:22:02;;;;;;;5.63;1.00;;;;;;;;;;5064795;28;20709;-75
2023/01/09 00:24:32;;;;;;;9.18;1.77;;;;;;;;;;5065801;28;20056;-76
2023/01/09 00:27:03;;;;;;;6.40;1.25;;;;;;;;;;5066209;28;20056;-75
2023/01/09 00:29:34;;;;;;;4.50;0.80;;;;;;;;;;5066284;28;20048;-76
2023/01/09 00:32:08;;;;;;;6.25;1.00;;;;;;;;;;5066665;28;20048;-75
2023/01/09 00:34:39;;;;;;;5.25;1.08;;;;;;;;;;5065439;28;20049;-75
2023/01/09 00:37:13;;;;;;;8.55;1.10;;;;;;;;;;5047485;28;20677;-75
2023/01/09 00:39:44;;;;;;;7.70;1.35;;;;;;;;;;5066508;28;20067;-75
2023/01/09 00:42:21;;;;;;;12.48;1.10;;;;;;;;;;5066098;28;20040;-75
2023/01/09 00:44:58;;;;;;;6.97;1.08;;;;;;;;;;5065347;28;20044;-75
2023/01/09 00:47:41;;;;;;;10.45;1.23;;;;;;;;;;5065972;28;20491;-75
2023/01/09 00:50:21;;;;;;;10.75;1.23;;;;;;;;;;5065800;28;20499;-76
2023/01/09 00:52:54;;;;;;;5.82;1.15;;;;;;;;;;5066175;28;20055;-76
2023/01/09 00:55:26;;;;;;;7.85;1.10;;;;;;;;;;5064562;28;20060;-76
2023/01/09 00:57:58;;;;;;;6.82;1.48;;;;;;;;;;5067238;28;20033;-76
2023/01/09 01:00:29;;;;;;;9.95;1.20;;;;;;;;;;5070067;28;20044;-76
2023/01/09 01:03:00;;;;;;;8.45;1.23;;;;;;;;;;5069328;28;20049;-76
2023/01/09 01:08:19;;;;;;;11.15;1.50;;;;;;;;;;5069142;28;20044;-77
2023/01/09 01:10:50;;;;;;;6.10;0.93;;;;;;;;;;5066190;28;20052;-76
2023/01/09 01:13:21;;;;;;;6.28;0.93;;;;;;;;;;5068465;28;20083;-75
2023/01/09 01:15:51;;;;;;;3.72;0.80;;;;;;;;;;5069153;28;20052;-75
2023/01/09 01:18:22;;;;;;;6.78;1.10;;;;;;;;;;5068509;28;20055;-75
2023/01/09 01:20:52;;;;;;;4.80;1.13;;;;;;;;;;5069180;28;20044;-76
2023/01/09 01:23:22;;;;;;;9.18;1.10;;;;;;;;;;5050894;28;20053;-76
2023/01/09 01:25:52;;;;;;;5.22;1.00;;;;;;;;;;5066991;28;20053;-75
2023/01/09 01:28:23;;;;;;;8.13;1.23;;;;;;;;;;5067392;28;20779;-75
2023/01/09 01:30:53;;;;;;;5.50;0.80;;;;;;;;;;5067389;28;20049;-75
2023/01/09 01:33:23;;;;;;;6.35;1.27;;;;;;;;;;5067572;28;20059;-75
2023/01/09 01:36:03;;;;;;;6.05;0.82;;;;;;;;;;5067108;28;20049;-75
2023/01/09 01:38:34;;;;;;;6.53;0.98;;;;;;;;;;5067711;28;20041;-75
2023/01/09 01:41:05;;;;;;;6.30;1.13;;;;;;;;;;5068808;28;20049;-75
2023/01/09 01:43:54;;;;;;;5.43;1.23;;;;;;;;;;5068832;28;20521;-75
2023/01/09 01:46:26;;;;;;;4.47;0.80;;;;;;;;;;5069560;28;20044;-75
2023/01/09 01:49:05;;;;;;;4.72;0.93;;;;;;;;;;5069392;28;20051;-74
2023/01/09 01:51:42;;;;;;;5.28;0.77;;;;;;;;;;5067945;28;20063;-75
2023/01/09 01:54:19;;;;;;;6.22;0.98;;;;;;;;;;5068489;28;20051;-75
2023/01/09 01:56:55;;;;;;;4.68;0.90;;;;;;;;;;5069012;28;20044;-75
2023/01/09 01:59:41;;;;;;;4.38;0.90;;;;;;;;;;5069467;28;20049;-75
2023/01/09 02:02:12;;;;;;;5.63;0.93;;;;;;;;;;5068480;28;20491;-75
2023/01/09 02:04:42;;;;;;;6.25;1.10;;;;;;;;;;5068069;28;20487;-75
2023/01/09 02:07:14;;;;;;;7.35;1.10;;;;;;;;;;5068438;28;20051;-75
2023/01/09 02:09:45;;;;;;;6.35;0.80;;;;;;;;;;5068187;28;20044;-75
2023/01/09 02:12:26;;;;;;;6.20;1.00;;;;;;;;;;5069269;28;20049;-75
2023/01/09 02:15:05;;;;;;;7.13;2.00;;;;;;;;;;5068338;28;20044;-75
2023/01/09 02:17:57;;;;;;;6.00;0.82;;;;;;;;;;5068758;28;20045;-75
2023/01/09 02:20:30;;;;;;;8.50;2.30;;;;;;;;;;5068577;28;20052;-75
2023/01/09 02:23:38;;;;;;;8.25;2.08;;;;;;;;;;5067969;28;20493;-78
2023/01/09 02:26:34;;;;;;;7.18;1.23;;;;;;;;;;5068184;28;20823;-75
2023/01/09 02:29:25;;;;;;;7.35;2.17;;;;;;;;;;5068538;28;20040;-75
2023/01/09 02:32:08;;;;;;;4.65;1.05;;;;;;;;;;5068164;28;20048;-76
2023/01/09 02:35:04;;;;;;;6.78;1.50;;;;;;;;;;5068188;28;20376;-76
2023/01/09 02:37:39;;;;;;;6.85;1.10;;;;;;;;;;5068020;28;20975;-75
2023/01/09 02:40:20;;;;;;;4.38;1.00;;;;;;;;;;5067969;28;20045;-75
2023/01/09 02:42:54;;;;;;;4.38;1.00;;;;;;;;;;5068057;28;20051;-75
2023/01/09 02:45:26;;;;;;;6.07;1.30;;;;;;;;;;5067947;28;20044;-75
2023/01/09 02:47:58;;;;;;;6.03;1.00;;;;;;;;;;5068077;28;20048;-75
2023/01/09 02:50:41;;;;;;;4.68;0.90;;;;;;;;;;5068178;28;20049;-75
2023/01/09 02:53:23;;;;;;;9.15;0.75;;;;;;;;;;5067827;28;20064;-75
2023/01/09 02:56:34;;;;;;;5.68;1.20;;;;;;;;;;5068207;28;20055;-75
2023/01/09 02:59:15;;;;;;;3.63;0.85;;;;;;;;;;5067402;28;20494;-75
2023/01/09 03:02:18;;;;;;;4.30;0.93;;;;;;;;;;5067419;28;20399;-75
2023/01/09 03:05:10;;;;;;;6.95;1.05;;;;;;;;;;5067119;28;20048;-75
2023/01/09 03:07:57;;;;;;;4.82;1.10;;;;;;;;;;5067482;28;20052;-75
2023/01/09 03:10:47;;;;;;;5.20;1.17;;;;;;;;;;5067320;28;20055;-75
2023/01/09 03:13:23;;;;;;;5.07;0.90;;;;;;;;;;5066953;28;20053;-75
2023/01/09 03:16:04;;;;;;;6.13;1.02;;;;;;;;;;5067434;28;20075;-75
2023/01/09 03:18:36;;;;;;;9.98;1.02;;;;;;;;;;5066956;28;20115;-75
2023/01/09 03:21:09;;;;;;;7.22;0.98;;;;;;;;;;5066309;28;20063;-76
2023/01/09 03:23:51;;;;;;;8.65;1.50;;;;;;;;;;5067603;28;20051;-75
2023/01/09 03:26:22;;;;;;;7.60;0.70;;;;;;;;;;5067472;28;20123;-75
2023/01/09 03:28:53;;;;;;;6.55;1.15;;;;;;;;;;5066666;28;20507;-75
2023/01/09 03:31:23;;;;;;;5.88;0.90;;;;;;;;;;5049402;28;20439;-75
2023/01/09 03:33:54;;;;;;;8.65;1.23;;;;;;;;;;5066530;28;20052;-76
2023/01/09 03:36:25;;;;;;;2.35;0.40;;;;;;;;;;5067451;28;20509;-75
2023/01/09 03:38:55;;;;;;;6.65;1.23;;;;;;;;;;5067017;28;20044;-75
2023/01/09 03:41:25;;;;;;;4.78;1.17;;;;;;;;;;5066924;28;20055;-75
2023/01/09 03:43:55;;;;;;;4.47;1.13;;;;;;;;;;5067012;28;20422;-75
2023/01/09 03:46:26;;;;;;;8.20;1.27;;;;;;;;;;5066492;28;20517;-75
2023/01/09 03:48:57;;;;;;;6.53;1.10;;;;;;;;;;5049627;28;20478;-75
2023/01/09 03:51:28;;;;;;;5.40;1.00;;;;;;;;;;5066570;28;20052;-75
2023/01/09 03:53:59;;;;;;;4.25;1.10;;;;;;;;;;5066111;28;20388;-75
2023/01/09 03:56:29;;;;;;;4.93;0.95;;;;;;;;;;5067108;28;20057;-75
2023/01/09 03:59:00;;;;;;;2.53;0.50;;;;;;;;;;5066063;28;20071;-75
2023/01/09 04:01:30;;;;;;;5.00;0.98;;;;;;;;;;5066771;28;20056;-75
2023/01/09 04:04:00;;;;;;;4.13;1.00;;;;;;;;;;5067258;28;20048;-75
2023/01/09 04:06:31;;;;;;;6.90;1.20;;;;;;;;;;5066885;28;20525;-75
2023/01/09 04:09:01;;;;;;;3.85;0.98;;;;;;;;;;5066296;28;20067;-75
2023/01/09 04:11:32;;;;;;;3.45;1.38;;;;;;;;;;5066275;28;20052;-75
2023/01/09 04:14:03;;;;;;;5.50;1.00;;;;;;;;;;5066453;28;20400;-75
2023/01/09 04:16:33;;;;;;;3.70;0.80;;;;;;;;;;5066345;28;20040;-75
2023/01/09 04:19:12;;;;;;;4.57;1.10;;;;;;;;;;5066881;28;20041;-75
2023/01/09 04:21:42;;;;;;;5.13;1.27;;;;;;;;;;5066932;28;20052;-75
2023/01/09 04:24:13;;;;;;;6.63;1.40;;;;;;;;;;5066837;28;20408;-75
2023/01/09 04:26:43;;;;;;;6.05;1.15;;;;;;;;;;5066272;28;20057;-75
2023/01/09 04:29:13;;;;;;;9.80;2.03;;;;;;;;;;5066158;28;20049;-75
2023/01/09 04:31:44;;;;;;;7.32;1.27;;;;;;;;;;5067385;28;20055;-75
2023/01/09 04:34:15;;;;;;;3.42;0.93;;;;;;;;;;5070178;28;20041;-75
2023/01/09 04:36:45;;;;;;;4.82;1.05;;;;;;;;;;5070132;28;20071;-75
2023/01/09 04:39:16;;;;;;;8.48;1.13;;;;;;;;;;5070668;28;20108;-75
2023/01/09 04:41:50;;;;;;;8.63;1.23;;;;;;;;;;5070664;28;20410;-75
2023/01/09 04:44:26;;;;;;;5.35;1.27;;;;;;;;;;5069919;28;20045;-75
2023/01/09 04:46:58;;;;;;;6.85;1.08;;;;;;;;;;5070176;28;20052;-75
2023/01/09 04:49:28;;;;;;;4.53;1.38;;;;;;;;;;5069776;28;20052;-75
2023/01/09 04:51:58;;;;;;;7.28;1.20;;;;;;;;;;5052243;28;20051;-75
2023/01/09 04:54:29;;;;;;;6.20;1.50;;;;;;;;;;5035476;28;20052;-75
2023/01/09 04:56:59;;;;;;;7.93;1.10;;;;;;;;;;5069924;28;20049;-75
2023/01/09 04:59:29;;;;;;;9.77;1.40;;;;;;;;;;5052024;28;20528;-75
2023/01/09 05:02:01;;;;;;;4.18;1.17;;;;;;;;;;5069529;28;20517;-75
2023/01/09 05:04:33;;;;;;;4.80;0.75;;;;;;;;;;5051420;28;20453;-75
2023/01/09 05:07:03;;;;;;;4.05;0.90;;;;;;;;;;5069831;28;20044;-75
2023/01/09 05:09:33;;;;;;;4.57;0.80;;;;;;;;;;5069498;28;20048;-75
2023/01/09 05:12:04;;;;;;;4.15;1.10;;;;;;;;;;5069702;28;20402;-75
2023/01/09 05:14:34;;;;;;;7.07;1.27;;;;;;;;;;5069636;28;20495;-75
2023/01/09 05:17:07;;;;;;;6.55;1.00;;;;;;;;;;5035568;28;20052;-75
2023/01/09 05:19:38;;;;;;;3.53;0.93;;;;;;;;;;5069412;28;20064;-75
2023/01/09 05:22:08;;;;;;;4.15;1.13;;;;;;;;;;5051835;28;20056;-75
2023/01/09 05:24:40;;;;;;;4.47;1.27;;;;;;;;;;5069545;28;20505;-75
2023/01/09 05:27:10;;;;;;;5.22;1.10;;;;;;;;;;5069648;28;20055;-75
2023/01/09 05:29:41;;;;;;;6.53;1.20;;;;;;;;;;5050833;28;20051;-75
2023/01/09 05:32:11;;;;;;;4.47;0.90;;;;;;;;;;5068937;28;20041;-75
2023/01/09 05:34:41;;;;;;;5.03;1.48;;;;;;;;;;5068994;28;20074;-75
2023/01/09 05:37:12;;;;;;;11.25;1.98;;;;;;;;;;5069489;28;20045;-75
2023/01/09 05:39:42;;;;;;;8.18;1.05;;;;;;;;;;5069216;28;20051;-75
2023/01/09 05:42:12;;;;;;;6.93;1.73;;;;;;;;;;5069589;28;20071;-75
2023/01/09 05:44:42;;;;;;;3.28;1.13;;;;;;;;;;5068960;28;20048;-75
2023/01/09 05:47:12;;;;;;;6.45;1.33;;;;;;;;;;5068913;28;20044;-74
2023/01/09 05:49:44;;;;;;;7.05;1.85;;;;;;;;;;5051471;28;20052;-75
2023/01/09 05:52:14;;;;;;;3.55;0.90;;;;;;;;;;5069303;28;20049;-75
2023/01/09 05:54:44;;;;;;;7.30;1.00;;;;;;;;;;5068814;28;20687;-74
2023/01/09 05:57:14;;;;;;;7.15;1.60;;;;;;;;;;5051004;28;20388;-75
2023/01/09 05:59:44;;;;;;;4.90;1.35;;;;;;;;;;5068941;28;20494;-75
2023/01/09 06:02:15;;;;;;;8.82;1.23;;;;;;;;;;5069395;28;20045;-75
2023/01/09 06:04:46;;;;;;;4.93;1.15;;;;;;;;;;5068758;28;20048;-75
2023/01/09 06:07:15;;;;;;;9.18;1.30;;;;;;;;;;5068670;28;20049;-75
2023/01/09 06:09:50;;;;;;;4.75;0.93;;;;;;;;;;5068541;28;20049;-75
2023/01/09 06:12:20;;;;;;;5.68;1.02;;;;;;;;;;5068761;28;20056;-75
2023/01/09 06:14:51;;;;;;;6.93;2.03;;;;;;;;;;5068680;28;20045;-75
2023/01/09 06:17:22;;;;;;;11.35;1.70;;;;;;;;;;5068876;28;20052;-75
2023/01/09 06:19:53;;;;;;;8.85;1.52;;;;;;;;;;5068427;28;20043;-75
2023/01/09 06:22:25;;;;;;;9.02;1.42;;;;;;;;;;5068927;28;20045;-75
2023/01/09 06:24:55;;;;;;;8.18;1.33;;;;;;;;;;5068344;28;20052;-75
2023/01/09 06:27:26;;;;;;;6.25;1.50;;;;;;;;;;5068188;28;20051;-75
2023/01/09 06:29:56;;;;;;;6.28;1.45;;;;;;;;;;5067777;28;20049;-75
2023/01/09 06:32:27;;;;;;;3.85;1.50;;;;;;;;;;5068148;28;20051;-75
2023/01/09 06:34:57;;;;;;;6.78;1.45;;;;;;;;;;5068230;28;20056;-75
2023/01/09 06:37:27;;;;;;;8.30;1.52;;;;;;;;;;5049592;28;20052;-75
2023/01/09 06:39:57;;;;;;;10.50;1.77;;;;;;;;;;5068623;28;20055;-75
2023/01/09 06:42:27;;;;;;;7.25;1.30;;;;;;;;;;5067212;28;20514;-75
2023/01/09 06:44:58;;;;;;;3.72;1.13;;;;;;;;;;5067842;28;20139;-73
2023/01/09 06:47:28;;;;;;;11.63;1.60;;;;;;;;;;5067956;28;20047;-73
2023/01/09 06:49:58;;;;;;;6.05;1.05;;;;;;;;;;5049722;28;20114;-73
2023/01/09 06:52:29;;;;;;;8.10;1.52;;;;;;;;;;5067668;28;20415;-75
2023/01/09 06:55:03;;;;;;;5.20;1.40;;;;;;;;;;5066714;28;20060;-75
2023/01/09 06:57:35;;;;;;;4.65;1.00;;;;;;;;;;5050021;28;20048;-75
2023/01/09 07:00:07;;;;;;;5.07;1.10;;;;;;;;;;5067807;28;20391;-75
2023/01/09 07:02:37;;;;;;;5.22;1.30;;;;;;;;;;5050515;28;20071;-75
2023/01/09 07:05:16;;;;;;;2.85;1.20;;;;;;;;;;5068021;28;20491;-75
2023/01/09 07:07:46;;;;;;;6.95;1.48;;;;;;;;;;5049258;28;20048;-75
2023/01/09 07:10:18;;;;;;;7.97;1.33;;;;;;;;;;5066957;28;20410;-75
2023/01/09 07:12:49;;;;;;;11.02;1.30;;;;;;;;;;5067512;28;20044;-75
2023/01/09 07:15:19;;;;;;;6.85;1.63;;;;;;;;;;5048134;28;20057;-75
2023/01/09 07:17:51;;;;;;;5.82;1.45;;;;;;;;;;5067074;28;20048;-75
2023/01/09 07:20:22;;;;;;;2.03;1.30;;;;;;;;;;5067814;28;20064;-75
2023/01/09 07:22:54;;;;;;;3.88;0.90;;;;;;;;;;5049417;28;20048;-75
2023/01/09 07:25:24;;;;;;;4.65;1.10;;;;;;;;;;5067084;28;20045;-75
2023/01/09 07:27:54;;;;;;;7.10;1.20;;;;;;;;;;5067518;28;20049;-75
2023/01/09 07:30:25;;;;;;;11.02;1.10;;;;;;;;;;5067284;28;20060;-75
2023/01/09 07:32:57;;;;;;;4.25;1.30;;;;;;;;;;5067136;28;20048;-75
2023/01/09 07:35:27;;;;;;;16.15;1.65;;;;;;;;;;5049482;28;20057;-75
2023/01/09 07:37:57;;;;;;;5.70;1.38;;;;;;;;;;5067336;28;20059;-75
2023/01/09 07:40:27;;;;;;;5.15;1.48;;;;;;;;;;5066844;28;20513;-75
2023/01/09 07:42:58;;;;;;;6.20;1.65;;;;;;;;;;5049534;28;20040;-75
2023/01/09 07:45:28;;;;;;;7.97;1.20;;;;;;;;;;5066867;28;20060;-75
2023/01/09 07:47:58;;;;;;;5.65;1.65;;;;;;;;;;5049547;28;20048;-75
2023/01/09 07:50:29;;;;;;;5.88;1.45;;;;;;;;;;5066789;28;20526;-75
2023/01/09 07:53:00;;;;;;;5.57;1.50;;;;;;;;;;5066743;28;20063;-75
2023/01/09 07:55:30;;;;;;;4.90;1.42;;;;;;;;;;5066946;28;20059;-75
2023/01/09 07:58:00;;;;;;;9.88;1.73;;;;;;;;;;5066743;28;20044;-75
2023/01/09 08:00:30;;;;;;;6.50;1.40;;;;;;;;;;5067317;28;20410;-75
2023/01/09 08:03:01;;;;;;;10.95;1.92;;;;;;;;;;5049768;28;20052;-76
2023/01/09 08:05:32;;;;;;;5.15;1.23;;;;;;;;;;5066999;28;20612;-75
2023/01/09 08:08:01;;;;;;;8.98;2.25;;;;;;;;;;5049236;28;20475;-74
2023/01/09 08:10:32;;;;;;;1.60;1.40;;;;;;;;;;5066926;28;20053;-75
2023/01/09 08:13:02;;;;;;;6.60;1.65;;;;;;;;;;5066951;28;20056;-75
2023/01/09 08:15:36;;;;;;;6.50;1.65;;;;;;;;;;5049439;28;20048;-75
2023/01/09 08:18:06;;;;;;;8.88;2.13;;;;;;;;;;5066435;28;20683;-75
2023/01/09 08:20:36;;;;;;;7.43;1.67;;;;;;;;;;5066356;28;20036;-75
2023/01/09 08:23:06;;;;;;;10.68;1.90;;;;;;;;;;5066682;28;20509;-75
2023/01/09 08:25:36;;;;;;;7.68;1.55;;;;;;;;;;5066442;28;20053;-75
2023/01/09 08:28:11;;;;;;;4.88;1.50;;;;;;;;;;5066885;28;20135;-75
2023/01/09 08:30:42;;;;;;;7.63;1.80;;;;;;;;;;5067370;28;20651;-75
2023/01/09 08:33:13;;;;;;;7.13;1.33;;;;;;;;;;5066896;28;20056;-75
2023/01/09 08:35:43;;;;;;;7.47;3.35;;;;;;;;;;5067026;28;20052;-75
2023/01/09 08:38:14;;;;;;;9.32;1.80;;;;;;;;;;5066194;28;20048;-75
2023/01/09 08:40:46;;;;;;;4.20;1.05;;;;;;;;;;5066177;28;20048;-75
2023/01/09 08:48:54;;;;;;;6.60;1.70;;;;;;;;;;5066154;28;19931;-75
2023/01/09 08:51:25;;;;;;;3.30;1.05;;;;;;;;;;5066459;28;20059;-75
2023/01/09 08:53:55;;;;;;;3.97;1.65;;;;;;;;;;5066628;28;20048;-75
2023/01/09 08:56:25;;;;;;;6.43;1.48;;;;;;;;;;5066226;28;20049;-75
2023/01/09 08:58:55;;;;;;;7.90;1.50;;;;;;;;;;5065789;28;20383;-75
2023/01/09 09:01:26;;;;;;;9.13;2.10;;;;;;;;;;5065650;28;20486;-75
2023/01/09 09:03:56;;;;;;;9.30;1.88;;;;;;;;;;5066087;28;20048;-76
2023/01/09 09:06:26;;;;;;;3.53;1.42;;;;;;;;;;5065956;28;20063;-76
2023/01/09 09:09:02;;;;;;;6.55;2.05;;;;;;;;;;5065909;28;20036;-75
2023/01/09 09:11:33;;;;;;;14.27;1.83;;;;;;;;;;5065853;28;20055;-76
2023/01/09 09:15:11;;;;;;;4.43;1.60;;;;;;;;;;5066016;28;20049;-77
2023/01/09 09:16:54;;;;;;;3.40;1.40;;;;;;;;;;5065759;28;20499;-76
2023/01/09 09:19:23;;;;;;;6.35;1.63;;;;;;;;;;5048717;28;20049;-76
2023/01/09 09:21:54;;;;;;;8.45;1.63;;;;;;;;;;5069434;28;20052;-76
2023/01/09 09:24:24;;;;;;;7.57;1.40;;;;;;;;;;5069837;28;20056;-76
2023/01/09 09:26:54;;;;;;;7.57;1.42;;;;;;;;;;5069877;28;20056;-76
2023/01/09 09:29:25;;;;;;;6.72;1.13;;;;;;;;;;5069494;28;20045;-76
2023/01/09 09:31:55;;;;;;;11.02;1.75;;;;;;;;;;5069752;28;20059;-76
2023/01/09 09:34:29;;;;;;;7.20;1.60;;;;;;;;;;5069898;28;20487;-76
2023/01/09 09:37:00;;;;;;;7.93;2.05;;;;;;;;;;5069048;28;20059;-77
2023/01/09 09:39:31;;;;;;;4.22;1.42;;;;;;;;;;5035165;28;20052;-76
2023/01/09 09:45:30;;;;;;;10.75;2.03;;;;;;;;;;5069070;28;20044;-75
2023/01/09 09:48:31;;;;;;;16.95;2.03;;;;;;;;;;5068983;28;20491;-77
2023/01/09 09:51:31;;;;;;;10.82;2.03;;;;;;;;;;5068941;28;20048;-76
2023/01/09 09:54:13;;;;;;;11.57;2.05;;;;;;;;;;5068628;28;20495;-76
2023/01/09 09:57:04;;;;;;;7.10;1.85;;;;;;;;;;5069041;28;20052;-76
2023/01/09 09:59:38;;;;;;;10.73;1.50;;;;;;;;;;5068118;28;20489;-76
2023/01/09 10:02:08;;;;;;;15.77;2.67;;;;;;;;;;5068703;28;20044;-76
2023/01/09 10:04:45;;;;;;;17.15;2.38;;;;;;;;;;5050808;28;20391;-76
2023/01/09 10:07:32;;;;;;;16.42;1.55;;;;;;;;;;5068831;28;20037;-76
2023/01/09 10:10:10;;;;;;;18.70;2.65;;;;;;;;;;5068467;28;20545;-78
2023/01/09 10:12:54;;;;;;;13.73;2.25;;;;;;;;;;5068099;28;20075;-77
2023/01/09 10:15:44;;;;;;;14.23;2.25;;;;;;;;;;5068426;28;20037;-78
2023/01/09 10:18:40;;;;;;;4.93;1.30;;;;;;;;;;5067834;28;20048;-76
2023/01/09 10:21:33;;;;;;;12.82;1.73;;;;;;;;;;5042099;28;20060;-76
2023/01/09 10:24:09;;;;;;;8.25;2.42;;;;;;;;;;5050691;28;20045;-76
2023/01/09 10:26:50;;;;;;;8.35;1.40;;;;;;;;;;5068064;28;20052;-76
2023/01/09 10:29:48;;;;;;;14.85;1.55;;;;;;;;;;5049662;28;20056;-76
2023/01/09 10:32:56;;;;;;;8.57;1.88;;;;;;;;;;5067738;28;20052;-76
2023/01/09 10:35:55;;;;;;;11.60;2.55;;;;;;;;;;5067919;28;20045;-76
2023/01/09 10:38:36;;;;;;;9.50;1.60;;;;;;;;;;5047334;28;20064;-83
2023/01/09 10:41:17;;;;;;;8.80;2.38;;;;;;;;;;5068071;28;20091;-76
2023/01/09 10:44:14;;;;;;;7.55;2.33;;;;;;;;;;5068133;28;20041;-77
2023/01/09 10:46:55;;;;;;;8.80;2.05;;;;;;;;;;5068029;28;20482;-77
2023/01/09 10:49:27;;;;;;;13.20;1.67;;;;;;;;;;5068246;28;20048;-77
2023/01/09 10:52:10;;;;;;;11.63;1.90;;;;;;;;;;5067849;28;20049;-78
2023/01/09 10:55:27;;;;;;;13.38;3.75;;;;;;;;;;5067622;28;20052;-78
2023/01/09 10:58:19;;;;;;;7.05;1.80;;;;;;;;;;5058333;28;20052;-78
2023/01/09 11:00:51;;;;;;;9.07;2.92;;;;;;;;;;5067438;28;20056;-74
2023/01/09 11:03:24;;;;;;;10.23;2.00;;;;;;;;;;5067869;28;20052;-74
2023/01/09 11:05:57;;;;;;;13.20;1.50;;;;;;;;;;5067799;28;20048;-75
2023/01/09 11:08:48;;;;;;;8.75;1.90;;;;;;;;;;5067236;28;20527;-74
2023/01/09 11:11:34;;;;;;;10.90;2.20;;;;;;;;;;5048943;28;20060;-75
2023/01/09 11:14:30;;;;;;;12.05;1.90;;;;;;;;;;5049817;28;20044;-74
2023/01/09 11:17:03;;;;;;;10.10;2.30;;;;;;;;;;5062403;28;20056;-73
2023/01/09 11:19:33;;;;;;;9.02;2.40;;;;;;;;;;5067341;28;20048;-75
2023/01/09 11:22:13;;;;;;;6.82;1.60;;;;;;;;;;5066696;28;20535;-77
2023/01/09 11:24:44;;;;;;;8.77;2.33;;;;;;;;;;5066976;28;20057;-75
2023/01/09 11:27:23;;;;;;;10.93;1.90;;;;;;;;;;5067334;28;20079;-77
2023/01/09 11:30:12;;;;;;;7.53;1.70;;;;;;;;;;5065672;28;20045;-78
2023/01/09 11:32:45;;;;;;;10.98;1.95;;;;;;;;;;5065207;28;20075;-76
2023/01/09 11:35:29;;;;;;;6.40;1.88;;;;;;;;;;5065380;28;20049;-75
2023/01/09 11:38:23;;;;;;;6.50;2.05;;;;;;;;;;5066101;28;20407;-75
2023/01/09 11:40:59;;;;;;;5.57;2.22;;;;;;;;;;5065605;28;20051;-75
2023/01/09 11:43:37;;;;;;;9.38;2.40;;;;;;;;;;5065578;28;20045;-76
2023/01/09 11:46:12;;;;;;;6.32;2.17;;;;;;;;;;5067146;28;20075;-78
2023/01/09 11:48:56;;;;;;;10.30;2.33;;;;;;;;;;5066661;28;20056;-76
2023/01/09 11:51:34;;;;;;;5.35;2.50;;;;;;;;;;5066627;28;20047;-75
2023/01/09 11:54:11;;;;;;;8.40;2.28;;;;;;;;;;5066280;28;20055;-75
2023/01/09 11:56:43;;;;;;;7.78;2.63;;;;;;;;;;5066552;28;20051;-75
2023/01/09 11:59:16;;;;;;;6.18;2.10;;;;;;;;;;5066818;28;20525;-75
2023/01/09 12:02:14;;;;;;;7.95;2.63;;;;;;;;;;5066388;28;20055;-76
2023/01/09 12:04:52;;;;;;;7.35;2.45;;;;;;;;;;5065892;28;20053;-74
2023/01/09 12:07:49;;;;;;;5.43;2.50;;;;;;;;;;5066135;28;20049;-78
2023/01/09 12:10:38;;;;;;;4.38;2.25;;;;;;;;;;5066539;28;20517;-77
2023/01/09 12:13:33;;;;;;;6.07;2.47;;;;;;;;;;5066946;28;20044;-76
2023/01/09 12:16:30;;;;;;;5.50;2.70;;;;;;;;;;5066135;28;20525;-76
2023/01/09 12:19:18;;;;;;;6.57;2.83;;;;;;;;;;5066266;28;20049;-76
2023/01/09 12:22:13;;;;;;;6.60;2.58;;;;;;;;;;5066562;28;20049;-76
2023/01/09 12:25:22;;;;;;;6.55;2.22;;;;;;;;;;5066094;28;20506;-76
2023/01/09 12:28:14;;;;;;;8.60;2.42;;;;;;;;;;5059549;28;20079;-76
2023/01/09 12:30:56;;;;;;;12.63;2.90;;;;;;;;;;5066374;28;20076;-76
2023/01/09 12:33:34;;;;;;;11.02;3.45;;;;;;;;;;5066541;28;20055;-76
2023/01/09 12:36:36;;;;;;;6.32;3.15;;;;;;;;;;5066355;28;20043;-77
2023/01/09 12:39:31;;;;;;;4.80;2.80;;;;;;;;;;5033880;28;20529;-77
2023/01/09 12:42:24;;;;;;;8.90;2.92;;;;;;;;;;5065758;28;20049;-77
2023/01/09 12:45:16;;;;;;;6.47;3.03;;;;;;;;;;5065921;28;20045;-76
2023/01/09 12:47:49;;;;;;;4.57;2.75;;;;;;;;;;5066070;28;20056;-77
2023/01/09 12:51:04;;;;;;;6.25;3.05;;;;;;;;;;5065759;28;20048;-78
2023/01/09 12:53:42;;;;;;;7.22;3.17;;;;;;;;;;5066572;28;20446;-77
2023/01/09 12:56:24;;;;;;;7.68;3.25;;;;;;;;;;5069890;28;20063;-77
2023/01/09 12:59:14;;;;;;;7.95;2.80;;;;;;;;;;5070275;28;20045;-77
2023/01/09 13:01:47;;;;;;;7.70;3.60;;;;;;;;;;5060732;28;20449;-77
2023/01/09 13:04:30;;;;;;;8.98;2.72;;;;;;;;;;5052349;28;20049;-77
2023/01/09 13:07:06;;;;;;;6.60;3.60;;;;;;;;;;5070120;28;20059;-77
2023/01/09 13:10:07;;;;;;;5.60;3.20;;;;;;;;;;5070368;28;20506;-77
2023/01/09 13:12:41;;;;;;;6.43;3.17;;;;;;;;;;5069781;28;20048;-76
2023/01/09 13:15:48;;;;;;;5.93;3.15;;;;;;;;;;5068999;28;20049;-76
2023/01/09 13:18:24;;;;;;;8.68;3.38;;;;;;;;;;5070074;28;20055;-76
2023/01/09 13:20:55;;;;;;;6.93;3.50;;;;;;;;;;5069361;28;20056;-77
2023/01/09 13:23:46;;;;;;;4.85;3.05;;;;;;;;;;5069471;28;20055;-78
2023/01/09 13:26:26;;;;;;;7.82;2.83;;;;;;;;;;5068834;28;20057;-77
2023/01/09 13:29:06;;;;;;;5.90;2.78;;;;;;;;;;5069356;28;20044;-78
2023/01/09 13:31:59;;;;;;;5.68;2.92;;;;;;;;;;5068954;28;20483;-77
2023/01/09 13:34:32;;;;;;;7.30;2.92;;;;;;;;;;5042093;28;20055;-78
2023/01/09 13:37:03;;;;;;;6.05;2.92;;;;;;;;;;5051887;28;20111;-76
2023/01/09 13:39:36;;;;;;;4.38;3.10;;;;;;;;;;5069480;28;20426;-78
2023/01/09 13:42:37;;;;;;;9.52;3.05;;;;;;;;;;5069122;28;20600;-76
2023/01/09 13:45:30;;;;;;;5.15;3.00;;;;;;;;;;5068779;28;20060;-76
2023/01/09 13:48:16;;;;;;;10.07;3.28;;;;;;;;;;5050376;28;20044;-76
2023/01/09 13:50:49;;;;;;;5.90;2.53;;;;;;;;;;5069599;28;20060;-77
2023/01/09 13:53:26;;;;;;;5.95;2.88;;;;;;;;;;5069108;28;20040;-77
2023/01/09 13:56:05;;;;;;;5.85;3.00;;;;;;;;;;5052400;28;20044;-77
2023/01/09 13:58:35;;;;;;;11.02;3.95;;;;;;;;;;5068849;28;20418;-77
2023/01/09 14:01:36;;;;;;;8.45;3.20;;;;;;;;;;5068936;28;20055;-77
2023/01/09 14:04:22;;;;;;;6.18;3.80;;;;;;;;;;5068520;28;20434;-77
2023/01/09 14:07:13;;;;;;;;;;;;;;;;;;5051600;28;20627;-77
2023/01/09 14:09:54;;;;;;;8.55;3.45;;;;;;;;;;5068968;28;20309;-78
2023/01/09 14:12:29;;;;;;;5.20;2.60;;;;;;;;;;5068597;28;20053;-77
2023/01/09 14:15:01;;;;;;;8.18;2.95;;;;;;;;;;5068370;28;20051;-77
2023/01/09 14:17:35;;;;;;;5.40;3.03;;;;;;;;;;5070406;28;20052;-77
2023/01/09 14:20:22;;;;;;;5.85;2.83;;;;;;;;;;5068761;28;20055;-77
2023/01/09 14:22:59;;;;;;;14.57;4.05;;;;;;;;;;5068430;28;20041;-77
2023/01/09 14:25:51;;;;;;;9.25;3.38;;;;;;;;;;5050877;28;20044;-77
2023/01/09 14:28:30;;;;;;;7.03;2.80;;;;;;;;;;5051627;28;20051;-75
2023/01/09 14:31:02;;;;;;;7.22;3.15;;;;;;;;;;5068775;28;20051;-78
2023/01/09 14:33:34;;;;;;;9.38;3.00;;;;;;;;;;5068362;28;20047;-79
2023/01/09 14:36:20;;;;;;;5.82;3.75;;;;;;;;;;5067827;28;20399;-78
2023/01/09 14:38:58;;;;;;;9.70;2.95;;;;;;;;;;5067647;28;20047;-77
2023/01/09 14:44:50;;;;;;;10.07;3.42;;;;;;;;;;5068165;28;20048;-78
2023/01/09 14:47:40;;;;;;;9.15;3.17;;;;;;;;;;5067544;28;20044;-77
2023/01/09 14:50:16;;;;;;;6.10;3.20;;;;;;;;;;5068255;28;20048;-78
2023/01/09 14:52:48;;;;;;;11.85;3.70;;;;;;;;;;5068278;28;20043;-78
2023/01/09 14:55:35;;;;;;;5.03;2.78;;;;;;;;;;5068009;28;20049;-78
2023/01/09 14:58:26;;;;;;;9.85;3.70;;;;;;;;;;5068662;28;20410;-77
2023/01/09 15:01:11;;;;;;;5.63;3.30;;;;;;;;;;5067708;28;20051;-77
2023/01/09 15:03:48;;;;;;;5.38;2.92;;;;;;;;;;5067440;28;20045;-78
2023/01/09 15:06:23;;;;;;;4.65;2.63;;;;;;;;;;5067968;28;20052;-80
2023/01/09 15:09:19;;;;;;;7.13;3.05;;;;;;;;;;5067699;28;20041;-78
2023/01/09 15:11:51;;;;;;;4.55;2.83;;;;;;;;;;5066947;28;20524;-78
2023/01/09 15:14:24;;;;;;;7.80;3.15;;;;;;;;;;5067556;28;20048;-78
2023/01/09 15:16:55;;;;;;;8.95;3.20;;;;;;;;;;5066623;28;20059;-77
2023/01/09 15:19:25;;;;;;;7.93;3.00;;;;;;;;;;5066636;28;20083;-75
2023/01/09 15:22:03;;;;;;;3.63;2.53;;;;;;;;;;5067929;28;20040;-76
2023/01/09 15:24:34;;;;;;;4.82;2.70;;;;;;;;;;5067856;28;20549;-77
2023/01/09 15:27:14;;;;;;;3.95;2.60;;;;;;;;;;5067917;28;20055;-78
2023/01/09 15:29:44;;;;;;;8.73;3.15;;;;;;;;;;5067257;28;20055;-80
2023/01/09 15:32:24;;;;;;;6.38;2.63;;;;;;;;;;5067072;28;20048;-77
2023/01/09 15:34:55;;;;;;;3.97;2.50;;;;;;;;;;5066645;28;20049;-75
2023/01/09 15:37:34;;;;;;;6.63;2.90;;;;;;;;;;5066838;28;20048;-78
2023/01/09 15:40:20;;;;;;;10.18;2.80;;;;;;;;;;5066876;28;20075;-76
2023/01/09 15:42:59;;;;;;;7.43;3.38;;;;;;;;;;5067013;28;20048;-78
2023/01/09 15:45:43;;;;;;;6.13;2.85;;;;;;;;;;5066648;28;20044;-76
2023/01/09 15:48:35;;;;;;;6.88;3.15;;;;;;;;;;5066625;28;20056;-76
2023/01/09 15:51:10;;;;;;;5.97;3.05;;;;;;;;;;5067603;28;20048;-76
2023/01/09 15:53:43;;;;;;;4.03;2.42;;;;;;;;;;5066478;28;20052;-76